createdAt,value
2022-08-30T00:01:57.294Z,953.67
2022-08-30T00:04:23.662Z,953.73
2022-08-30T00:06:50.060Z,953.74
2022-08-30T00:09:16.493Z,953.76
2022-08-30T00:11:42.853Z,953.70
2022-08-30T00:14:09.256Z,953.67
2022-08-30T00:16:35.674Z,953.64
2022-08-30T00:19:02.159Z,953.63
2022-08-30T00:21:28.490Z,953.58
2022-08-30T00:23:54.885Z,953.59
2022-08-30T00:26:21.250Z,953.61
2022-08-30T00:28:47.668Z,953.64
2022-08-30T00:31:15.538Z,953.62
2022-08-30T00:33:40.463Z,953.56
2022-08-30T00:36:06.949Z,953.63
2022-08-30T00:38:33.310Z,953.69
2022-08-30T00:40:59.747Z,953.71
2022-08-30T00:43:27.919Z,953.77
2022-08-30T00:45:52.575Z,953.76
2022-08-30T00:48:18.849Z,953.81
2022-08-30T00:50:45.246Z,953.78
2022-08-30T00:53:11.666Z,953.79
2022-08-30T00:55:38.830Z,953.81
2022-08-30T00:58:05.149Z,953.77
2022-08-30T01:00:30.831Z,953.73
2022-08-30T01:02:57.210Z,953.68
2022-08-30T01:05:23.637Z,953.71
2022-08-30T01:07:49.806Z,953.74
2022-08-30T01:10:16.172Z,953.74
2022-08-30T01:12:42.554Z,953.77
2022-08-30T01:15:08.913Z,953.73
2022-08-30T01:17:35.279Z,953.72
2022-08-30T01:20:01.721Z,953.68
2022-08-30T01:22:28.158Z,953.64
2022-08-30T01:24:54.522Z,953.68
2022-08-30T01:27:20.883Z,953.69
2022-08-30T01:29:47.351Z,953.73
2022-08-30T01:32:13.714Z,953.72
2022-08-30T01:34:40.107Z,953.81
2022-08-30T01:37:06.498Z,953.73
2022-08-30T01:39:32.984Z,953.60
2022-08-30T01:41:59.348Z,953.63
2022-08-30T01:44:25.717Z,953.54
2022-08-30T01:46:52.178Z,953.59
2022-08-30T01:49:27.366Z,953.61
2022-08-30T01:51:44.991Z,953.63
2022-08-30T01:54:11.374Z,953.61
2022-08-30T01:56:37.810Z,953.59
2022-08-30T01:59:04.239Z,953.58
2022-08-30T02:01:30.968Z,953.57
2022-08-30T02:03:57.092Z,953.52
2022-08-30T02:06:23.399Z,953.50
2022-08-30T02:08:49.872Z,953.44
2022-08-30T02:11:16.250Z,953.48
2022-08-30T02:13:42.615Z,953.43
2022-08-30T02:16:09.009Z,953.33
2022-08-30T02:18:35.396Z,953.33
2022-08-30T02:21:01.765Z,953.44
2022-08-30T02:23:28.266Z,953.46
2022-08-30T02:25:54.629Z,953.51
2022-08-30T02:28:21.029Z,953.52
2022-08-30T02:30:47.483Z,953.57
2022-08-30T02:33:13.848Z,953.49
2022-08-30T02:35:40.187Z,953.54
2022-08-30T02:38:06.651Z,953.48
2022-08-30T02:40:33.091Z,953.40
2022-08-30T02:42:59.377Z,953.42
2022-08-30T02:45:25.784Z,953.38
2022-08-30T02:47:52.180Z,953.38
2022-08-30T02:50:18.560Z,953.46
2022-08-30T02:52:45.293Z,953.48
2022-08-30T02:55:11.330Z,953.50
2022-08-30T02:57:37.704Z,953.42
2022-08-30T03:00:04.067Z,953.39
2022-08-30T03:02:30.477Z,953.35
2022-08-30T03:04:56.845Z,953.34
2022-08-30T03:07:23.207Z,953.35
2022-08-30T03:09:49.575Z,953.29
2022-08-30T03:12:16.048Z,953.37
2022-08-30T03:14:42.426Z,953.38
2022-08-30T03:17:12.787Z,953.43
2022-08-30T03:19:35.156Z,953.47
2022-08-30T03:22:01.632Z,953.51
2022-08-30T03:24:28.042Z,953.53
2022-08-30T03:26:54.409Z,953.52
2022-08-30T03:29:20.830Z,953.51
2022-08-30T03:31:53.098Z,953.55
2022-08-30T03:34:13.565Z,953.51
2022-08-30T03:36:39.932Z,953.54
2022-08-30T03:39:06.356Z,953.53
2022-08-30T03:41:32.789Z,953.52
2022-08-30T03:44:00.205Z,953.55
2022-08-30T03:46:26.931Z,953.54
2022-08-30T03:48:52.091Z,953.54
2022-08-30T03:51:18.454Z,953.53
2022-08-30T03:53:44.872Z,953.48
2022-08-30T03:56:11.237Z,953.45
2022-08-30T03:58:37.598Z,953.46
2022-08-30T04:01:04.104Z,953.47
2022-08-30T04:03:30.437Z,953.52
2022-08-30T04:05:56.924Z,953.42
2022-08-30T04:08:23.305Z,953.58
2022-08-30T04:10:49.688Z,953.63
2022-08-30T04:13:16.285Z,953.58
2022-08-30T04:15:42.541Z,953.54
2022-08-30T04:18:08.980Z,953.62
2022-08-30T04:20:35.364Z,953.68
2022-08-30T04:23:01.742Z,953.70
2022-08-30T04:25:28.283Z,953.65
2022-08-30T04:27:54.679Z,953.73
2022-08-30T04:30:21.136Z,953.74
2022-08-30T04:32:47.576Z,953.72
2022-08-30T04:35:14.003Z,953.68
2022-08-30T04:37:40.408Z,953.74
2022-08-30T04:40:06.823Z,953.69
2022-08-30T04:42:33.211Z,953.77
2022-08-30T04:44:59.581Z,953.83
2022-08-30T04:47:25.946Z,953.79
2022-08-30T04:49:52.335Z,953.79
2022-08-30T04:52:18.707Z,953.85
2022-08-30T04:54:45.077Z,953.90
2022-08-30T04:57:11.444Z,953.97
2022-08-30T04:59:37.934Z,954.00
2022-08-30T05:02:04.334Z,954.09
2022-08-30T05:04:30.699Z,954.08
2022-08-30T05:06:57.103Z,954.02
2022-08-30T05:09:23.553Z,954.09
2022-08-30T05:11:49.996Z,954.05
2022-08-30T05:14:16.421Z,954.10
2022-08-30T05:16:42.838Z,954.09
2022-08-30T05:19:09.198Z,954.13
2022-08-30T05:21:35.610Z,954.14
2022-08-30T05:24:01.967Z,954.08
2022-08-30T05:26:28.358Z,954.08
2022-08-30T05:28:54.821Z,954.08
2022-08-30T05:31:21.332Z,954.13
2022-08-30T05:33:47.653Z,954.09
2022-08-30T05:36:14.048Z,954.16
2022-08-30T05:38:40.439Z,954.13
2022-08-30T05:41:10.952Z,954.11
2022-08-30T05:43:33.249Z,954.10
2022-08-30T05:45:59.753Z,954.16
2022-08-30T05:48:26.184Z,954.14
2022-08-30T05:50:52.575Z,954.13
2022-08-30T05:53:18.986Z,954.15
2022-08-30T05:55:45.346Z,954.07
2022-08-30T05:58:11.827Z,954.11
2022-08-30T06:00:38.211Z,954.21
2022-08-30T06:03:04.782Z,954.16
2022-08-30T06:05:31.133Z,954.14
2022-08-30T06:07:57.644Z,954.11
2022-08-30T06:10:24.019Z,954.14
2022-08-30T06:12:50.393Z,954.24
2022-08-30T06:15:16.787Z,954.20
2022-08-30T06:17:43.275Z,954.20
2022-08-30T06:20:09.647Z,954.14
2022-08-30T06:22:36.084Z,954.23
2022-08-30T06:25:02.474Z,954.27
2022-08-30T06:27:28.907Z,954.19
2022-08-30T06:29:55.282Z,954.24
2022-08-30T06:32:21.673Z,954.32
2022-08-30T06:34:48.051Z,954.33
2022-08-30T06:37:29.527Z,954.41
2022-08-30T06:39:40.788Z,954.36
2022-08-30T06:42:07.165Z,954.34
2022-08-30T06:44:33.537Z,954.39
2022-08-30T06:46:59.927Z,954.37
2022-08-30T06:49:26.292Z,954.40
2022-08-30T06:51:52.727Z,954.48
2022-08-30T06:54:19.105Z,954.46
2022-08-30T06:57:00.376Z,954.42
2022-08-30T06:59:11.956Z,954.43
2022-08-30T07:01:38.388Z,954.41
2022-08-30T07:04:04.727Z,954.38
2022-08-30T07:06:31.097Z,954.52
2022-08-30T07:08:57.597Z,954.50
2022-08-30T07:11:26.740Z,954.55
2022-08-30T07:13:50.790Z,954.53
2022-08-30T07:16:17.196Z,954.55
2022-08-30T07:18:43.594Z,954.55
2022-08-30T07:21:10.036Z,954.50
2022-08-30T07:23:36.455Z,954.48
2022-08-30T07:26:02.892Z,954.49
2022-08-30T07:28:29.324Z,954.48
2022-08-30T07:30:55.793Z,954.52
2022-08-30T07:33:22.304Z,954.50
2022-08-30T07:35:48.833Z,954.51
2022-08-30T07:38:15.220Z,954.53
2022-08-30T07:40:41.731Z,954.51
2022-08-30T07:43:08.083Z,954.57
2022-08-30T07:45:35.397Z,954.53
2022-08-30T07:48:00.830Z,954.54
2022-08-30T07:50:27.323Z,954.55
2022-08-30T07:52:53.704Z,954.56
2022-08-30T07:55:20.089Z,954.57
2022-08-30T07:57:46.520Z,954.59
2022-08-30T08:00:12.933Z,954.55
2022-08-30T08:02:39.528Z,954.66
2022-08-30T08:05:05.880Z,954.68
2022-08-30T08:07:32.356Z,954.69
2022-08-30T08:09:58.713Z,954.69
2022-08-30T08:12:25.198Z,954.66
2022-08-30T08:14:51.663Z,954.60
2022-08-30T08:17:18.019Z,954.65
2022-08-30T08:19:44.397Z,954.59
2022-08-30T08:22:25.999Z,954.60
2022-08-30T08:24:37.188Z,954.59
2022-08-30T08:27:03.555Z,954.62
2022-08-30T08:29:29.938Z,954.61
2022-08-30T08:31:56.351Z,954.64
2022-08-30T08:34:22.721Z,954.61
2022-08-30T08:36:49.096Z,954.63
2022-08-30T08:39:15.467Z,954.59
2022-08-30T08:41:41.869Z,954.65
2022-08-30T08:44:08.247Z,954.65
2022-08-30T08:46:34.681Z,954.67
2022-08-30T08:49:01.020Z,954.62
2022-08-30T08:51:27.413Z,954.65
2022-08-30T08:53:53.869Z,954.64
2022-08-30T08:56:20.298Z,954.65
2022-08-30T08:58:46.666Z,954.65
2022-08-30T09:01:13.128Z,954.69
2022-08-30T09:03:39.497Z,954.72
2022-08-30T09:06:05.926Z,954.67
2022-08-30T09:08:32.305Z,954.67
2022-08-30T09:10:58.671Z,954.68
2022-08-30T09:13:25.057Z,954.59
2022-08-30T09:15:55.071Z,954.65
2022-08-30T09:18:19.221Z,954.71
2022-08-30T09:20:44.164Z,954.69
2022-08-30T09:23:10.545Z,954.68
2022-08-30T09:25:41.654Z,954.71
2022-08-30T09:28:03.418Z,954.75
2022-08-30T09:30:29.811Z,954.74
2022-08-30T09:32:56.208Z,954.66
2022-08-30T09:35:22.584Z,954.67
2022-08-30T09:37:48.951Z,954.69
2022-08-30T09:40:15.453Z,954.66
2022-08-30T09:42:41.742Z,954.72
2022-08-30T09:45:08.122Z,954.67
2022-08-30T09:47:34.494Z,954.65
2022-08-30T09:50:00.855Z,954.65
2022-08-30T09:52:27.337Z,954.62
2022-08-30T09:54:53.768Z,954.58
2022-08-30T09:57:20.139Z,954.59
2022-08-30T09:59:46.644Z,954.60
2022-08-30T10:02:13.004Z,954.52
2022-08-30T10:04:39.319Z,954.51
2022-08-30T10:07:05.690Z,954.55
2022-08-30T10:09:32.072Z,954.49
2022-08-30T10:11:58.446Z,954.50
2022-08-30T10:14:24.873Z,954.40
2022-08-30T10:16:51.363Z,954.34
2022-08-30T10:19:17.802Z,954.27
2022-08-30T10:21:44.252Z,954.24
2022-08-30T10:24:10.600Z,954.19
2022-08-30T10:26:37.003Z,954.25
2022-08-30T10:29:03.388Z,954.17
2022-08-30T10:31:29.790Z,954.23
2022-08-30T10:33:56.175Z,954.23
2022-08-30T10:36:22.541Z,954.19
2022-08-30T10:38:48.940Z,954.17
2022-08-30T10:41:15.385Z,954.21
2022-08-30T10:43:41.747Z,954.13
2022-08-30T10:46:08.136Z,954.14
2022-08-30T10:48:34.573Z,954.17
2022-08-30T10:51:00.945Z,954.17
2022-08-30T10:53:27.346Z,954.14
2022-08-30T10:55:53.730Z,954.13
2022-08-30T10:58:20.113Z,954.08
2022-08-30T11:00:46.521Z,954.07
2022-08-30T11:03:12.968Z,954.01
2022-08-30T11:05:41.772Z,954.02
2022-08-30T11:08:05.637Z,953.97
2022-08-30T11:10:32.018Z,953.93
2022-08-30T11:12:58.397Z,953.94
2022-08-30T11:15:24.830Z,953.87
2022-08-30T11:17:51.202Z,953.88
2022-08-30T11:20:17.587Z,953.95
2022-08-30T11:22:43.985Z,953.84
2022-08-30T11:25:10.603Z,953.79
2022-08-30T11:27:36.831Z,953.74
2022-08-30T11:30:03.332Z,953.75
2022-08-30T11:32:29.773Z,953.73
2022-08-30T11:34:56.127Z,953.74
2022-08-30T11:37:24.930Z,953.81
2022-08-30T11:39:51.316Z,953.72
2022-08-30T11:42:17.744Z,953.69
2022-08-30T11:44:44.155Z,953.73
2022-08-30T11:47:10.539Z,953.67
2022-08-30T11:49:36.920Z,953.66
2022-08-30T11:54:29.758Z,953.53
2022-08-30T11:56:56.436Z,953.53
2022-08-30T11:59:22.513Z,953.44
2022-08-30T12:01:55.051Z,953.49
2022-08-30T12:04:15.589Z,953.50
2022-08-30T12:06:41.814Z,953.47
2022-08-30T12:09:08.555Z,953.39
2022-08-30T12:11:34.577Z,953.33
2022-08-30T12:14:01.067Z,953.42
2022-08-30T12:16:27.467Z,953.29
2022-08-30T12:18:53.835Z,953.31
2022-08-30T12:21:20.262Z,953.35
2022-08-30T12:23:46.648Z,953.22
2022-08-30T12:26:13.134Z,953.25
2022-08-30T12:28:42.171Z,953.17
2022-08-30T12:31:05.863Z,953.07
2022-08-30T12:33:36.613Z,953.08
2022-08-30T12:35:58.617Z,953.06
2022-08-30T12:38:27.566Z,952.96
2022-08-30T12:40:51.421Z,952.97
2022-08-30T12:43:17.853Z,952.98
2022-08-30T12:45:44.319Z,952.94
2022-08-30T12:48:10.681Z,952.89
2022-08-30T12:50:37.024Z,952.85
2022-08-30T12:53:03.426Z,952.92
2022-08-30T12:55:29.810Z,952.87
2022-08-30T12:58:00.677Z,952.87
2022-08-30T13:00:22.598Z,952.92
2022-08-30T13:02:48.966Z,952.98
2022-08-30T13:05:15.335Z,952.90
2022-08-30T13:07:41.728Z,952.91
2022-08-30T13:10:08.122Z,952.91
2022-08-30T13:12:34.503Z,952.87
2022-08-30T13:15:00.892Z,952.82
2022-08-30T13:17:27.285Z,952.75
2022-08-30T13:19:53.680Z,952.80
2022-08-30T13:22:20.333Z,952.75
2022-08-30T13:24:46.561Z,952.77
2022-08-30T13:27:12.951Z,952.74
2022-08-30T13:29:39.344Z,952.75
2022-08-30T13:32:05.731Z,952.66
2022-08-30T13:34:32.102Z,952.73
2022-08-30T13:36:58.522Z,952.66
2022-08-30T13:39:24.886Z,952.66
2022-08-30T13:41:51.594Z,952.67
2022-08-30T13:44:17.758Z,952.57
2022-08-30T13:46:44.838Z,952.50
2022-08-30T13:49:43.084Z,952.54
2022-08-30T13:51:36.915Z,952.48
2022-08-30T13:54:03.281Z,952.47
2022-08-30T13:56:29.805Z,952.40
2022-08-30T13:58:56.091Z,952.42
2022-08-30T14:01:22.546Z,952.41
2022-08-30T14:06:32.239Z,952.41
2022-08-30T14:08:46.396Z,952.39
2022-08-30T14:11:08.115Z,952.43
2022-08-30T14:13:34.511Z,952.39
2022-08-30T14:18:27.347Z,952.33
2022-08-30T14:20:53.738Z,952.42
2022-08-30T14:23:20.117Z,952.36
2022-08-30T14:25:46.546Z,952.30
2022-08-30T14:28:12.972Z,952.25
2022-08-30T14:30:39.288Z,952.22
2022-08-30T14:33:05.681Z,952.24
2022-08-30T14:35:32.064Z,952.16
2022-08-30T14:37:58.430Z,952.11
2022-08-30T14:40:24.943Z,952.10
2022-08-30T14:42:51.333Z,952.07
2022-08-30T14:45:17.696Z,952.10
2022-08-30T14:47:44.288Z,952.10
2022-08-30T14:50:10.650Z,952.10
2022-08-30T14:52:37.068Z,952.11
2022-08-30T14:55:08.965Z,952.06
2022-08-30T14:57:29.833Z,952.03
2022-08-30T14:59:56.272Z,952.03
2022-08-30T15:02:26.560Z,951.99
2022-08-30T15:04:49.523Z,952.06
2022-08-30T15:07:15.572Z,952.04
2022-08-30T15:09:41.965Z,952.04
2022-08-30T15:12:08.422Z,952.04
2022-08-30T15:14:34.861Z,952.00
2022-08-30T15:17:01.263Z,952.04
2022-08-30T15:19:27.644Z,952.05
2022-08-30T15:21:54.023Z,951.99
2022-08-30T15:24:20.382Z,952.00
2022-08-30T15:26:46.749Z,951.96
2022-08-30T15:29:13.146Z,951.92
2022-08-30T15:31:39.683Z,951.94
2022-08-30T15:34:05.949Z,951.98
2022-08-30T15:36:32.317Z,951.92
2022-08-30T15:38:58.686Z,951.94
2022-08-30T15:41:25.565Z,951.92
2022-08-30T15:43:51.958Z,951.95
2022-08-30T15:46:18.365Z,951.94
2022-08-30T15:48:45.689Z,951.86
2022-08-30T15:51:11.357Z,951.86
2022-08-30T15:53:37.728Z,951.87
2022-08-30T15:56:04.092Z,951.81
2022-08-30T15:58:30.477Z,951.85
2022-08-30T16:00:56.941Z,951.78
2022-08-30T16:03:23.240Z,951.78
2022-08-30T16:05:49.632Z,951.73
2022-08-30T16:08:16.050Z,951.69
2022-08-30T16:10:43.320Z,951.67
2022-08-30T16:13:08.761Z,951.73
2022-08-30T16:15:35.273Z,951.81
2022-08-30T16:18:01.658Z,951.78
2022-08-30T16:20:28.026Z,951.74
2022-08-30T16:22:54.419Z,951.76
2022-08-30T16:25:20.806Z,951.73
2022-08-30T16:27:47.189Z,951.72
2022-08-30T16:30:13.558Z,951.82
2022-08-30T16:32:40.000Z,951.81
2022-08-30T16:35:06.525Z,951.87
2022-08-30T16:37:32.848Z,951.88
2022-08-30T16:39:59.357Z,951.92
2022-08-30T16:42:25.704Z,951.92
2022-08-30T16:44:52.513Z,951.92
2022-08-30T16:47:18.540Z,951.90
2022-08-30T16:49:44.858Z,951.94
2022-08-30T16:52:11.283Z,951.98
2022-08-30T16:54:37.665Z,952.04
2022-08-30T16:57:04.062Z,951.99
2022-08-30T16:59:30.434Z,951.96
2022-08-30T17:01:56.885Z,952.06
2022-08-30T17:04:23.230Z,952.12
2022-08-30T17:06:50.065Z,952.09
2022-08-30T17:09:16.047Z,952.09
2022-08-30T17:11:42.411Z,952.09
2022-08-30T17:14:08.781Z,952.09
2022-08-30T17:16:35.184Z,952.06
2022-08-30T17:19:01.534Z,952.12
2022-08-30T17:21:27.913Z,952.08
2022-08-30T17:23:54.285Z,952.16
2022-08-30T17:26:20.654Z,952.17
2022-08-30T17:28:47.142Z,952.17
2022-08-30T17:31:14.899Z,952.21
2022-08-30T17:33:42.975Z,952.28
2022-08-30T17:36:09.360Z,952.36
2022-08-30T17:38:35.746Z,952.44
2022-08-30T17:41:02.131Z,952.42
2022-08-30T17:43:28.520Z,952.44
2022-08-30T17:45:54.927Z,952.45
2022-08-30T17:48:21.292Z,952.40
2022-08-30T17:50:47.682Z,952.44
2022-08-30T17:53:14.057Z,952.50
2022-08-30T17:55:40.442Z,952.56
2022-08-30T17:58:06.843Z,952.61
2022-08-30T18:00:33.209Z,952.56
2022-08-30T18:02:59.627Z,952.63
2022-08-30T18:05:26.034Z,952.63
2022-08-30T18:07:52.431Z,952.64
2022-08-30T18:10:18.795Z,952.71
2022-08-30T18:12:45.292Z,952.67
2022-08-30T18:15:12.650Z,952.70
2022-08-30T18:17:38.073Z,952.70
2022-08-30T18:20:04.476Z,952.69
2022-08-30T18:22:30.866Z,952.64
2022-08-30T18:25:02.141Z,952.63
2022-08-30T18:27:23.915Z,952.67
2022-08-30T18:29:50.034Z,952.70
2022-08-30T18:32:16.423Z,952.66
2022-08-30T18:34:42.865Z,952.66
2022-08-30T18:37:11.534Z,952.75
2022-08-30T18:39:35.633Z,952.71
2022-08-30T18:42:02.005Z,952.73
2022-08-30T18:44:29.233Z,952.68
2022-08-30T18:46:56.420Z,952.77
2022-08-30T18:49:21.165Z,952.68
2022-08-30T18:51:47.482Z,952.72
2022-08-30T18:54:13.884Z,952.68
2022-08-30T18:56:40.370Z,952.77
2022-08-30T18:59:09.497Z,952.79
2022-08-30T19:01:33.225Z,952.73
2022-08-30T19:03:59.526Z,952.64
2022-08-30T19:06:25.928Z,952.74
2022-08-30T19:08:52.337Z,952.75
2022-08-30T19:11:18.725Z,952.74
2022-08-30T19:13:45.091Z,952.73
2022-08-30T19:16:12.218Z,952.72
2022-08-30T19:18:37.960Z,952.74
2022-08-30T19:21:04.473Z,952.78
2022-08-30T19:23:34.222Z,952.69
2022-08-30T19:25:57.161Z,952.76
2022-08-30T19:28:23.528Z,952.74
2022-08-30T19:30:49.945Z,952.75
2022-08-30T19:33:16.335Z,952.82
2022-08-30T19:35:43.553Z,952.80
2022-08-30T19:38:09.151Z,952.85
2022-08-30T19:40:35.529Z,952.76
2022-08-30T19:43:01.893Z,952.80
2022-08-30T19:45:28.263Z,952.83
2022-08-30T19:47:54.633Z,952.82
2022-08-30T19:50:21.071Z,952.76
2022-08-30T19:52:53.298Z,952.74
2022-08-30T19:55:13.852Z,952.75
2022-08-30T19:57:40.242Z,952.76
2022-08-30T20:00:06.709Z,952.76
2022-08-30T20:02:33.094Z,952.70
2022-08-30T20:04:59.461Z,952.75
2022-08-30T20:07:26.243Z,952.73
2022-08-30T20:09:52.277Z,952.70
2022-08-30T20:12:18.675Z,952.67
2022-08-30T20:14:45.208Z,952.65
2022-08-30T20:17:12.129Z,952.63
2022-08-30T20:19:38.069Z,952.69
2022-08-30T20:22:08.048Z,952.72
2022-08-30T20:24:31.014Z,952.66
2022-08-30T20:26:57.262Z,952.70
2022-08-30T20:29:23.626Z,952.68
2022-08-30T20:31:50.031Z,952.75
2022-08-30T20:34:16.467Z,952.74
2022-08-30T20:36:42.852Z,952.72
2022-08-30T20:39:09.331Z,952.70
2022-08-30T20:41:35.692Z,952.80
2022-08-30T20:44:02.096Z,952.75
2022-08-30T20:46:33.410Z,952.71
2022-08-30T20:48:54.884Z,952.73
2022-08-30T20:51:21.291Z,952.80
2022-08-30T20:53:47.728Z,952.74
2022-08-30T20:56:14.108Z,952.70
2022-08-30T20:58:40.595Z,952.70
2022-08-30T21:01:07.002Z,952.69
2022-08-30T21:03:33.357Z,952.69
2022-08-30T21:05:59.742Z,952.66
2022-08-30T21:08:26.224Z,952.64
2022-08-30T21:10:52.599Z,952.59
2022-08-30T21:13:18.963Z,952.55
2022-08-30T21:15:45.347Z,952.58
2022-08-30T21:18:11.726Z,952.55
2022-08-30T21:20:38.182Z,952.62
2022-08-30T21:23:04.559Z,952.61
2022-08-30T21:25:30.946Z,952.66
2022-08-30T21:27:57.378Z,952.67
2022-08-30T21:30:23.743Z,952.62
2022-08-30T21:32:50.161Z,952.55
2022-08-30T21:35:16.527Z,952.58
2022-08-30T21:37:42.939Z,952.56
2022-08-30T21:40:09.367Z,952.57
2022-08-30T21:42:35.671Z,952.59
2022-08-30T21:45:02.106Z,952.53
2022-08-30T21:47:28.461Z,952.56
2022-08-30T21:49:54.866Z,952.58
2022-08-30T21:52:21.299Z,952.55
2022-08-30T21:54:47.666Z,952.52
2022-08-30T21:57:14.062Z,952.53
2022-08-30T21:59:40.498Z,952.55
2022-08-30T22:02:06.883Z,952.61
2022-08-30T22:04:33.264Z,952.57
2022-08-30T22:06:59.648Z,952.55
2022-08-30T22:09:26.129Z,952.60
2022-08-30T22:11:52.495Z,952.63
2022-08-30T22:14:18.866Z,952.66
2022-08-30T22:16:45.310Z,952.65
2022-08-30T22:19:11.654Z,952.63
2022-08-30T22:21:38.039Z,952.70
2022-08-30T22:24:04.402Z,952.70
2022-08-30T22:26:30.786Z,952.67
2022-08-30T22:28:57.154Z,952.68
2022-08-30T22:31:23.586Z,952.67
2022-08-30T22:33:49.943Z,952.72
2022-08-30T22:36:16.323Z,952.75
2022-08-30T22:38:42.810Z,952.79
2022-08-30T22:41:09.269Z,952.68
2022-08-30T22:43:35.644Z,952.63
2022-08-30T22:46:02.068Z,952.68
2022-08-30T22:48:28.374Z,952.67
2022-08-30T22:50:54.760Z,952.69
2022-08-30T22:53:21.120Z,952.61
2022-08-30T22:55:49.915Z,952.57
2022-08-30T22:58:16.285Z,952.53
2022-08-30T23:00:42.895Z,952.48
2022-08-30T23:03:09.193Z,952.55
2022-08-30T23:05:35.554Z,952.49
2022-08-30T23:08:02.436Z,952.47
2022-08-30T23:10:28.857Z,952.46
2022-08-30T23:12:55.236Z,952.44
2022-08-30T23:15:21.599Z,952.51
2022-08-30T23:17:47.974Z,952.48
2022-08-30T23:20:14.376Z,952.47
2022-08-30T23:22:40.739Z,952.43
2022-08-30T23:25:15.819Z,952.44
2022-08-30T23:27:33.523Z,952.41
2022-08-30T23:29:59.906Z,952.41
2022-08-30T23:32:26.270Z,952.37
2022-08-30T23:34:52.716Z,952.38
2022-08-30T23:37:19.080Z,952.37
2022-08-30T23:39:45.467Z,952.35
2022-08-30T23:42:11.913Z,952.34
2022-08-30T23:44:38.345Z,952.31
2022-08-30T23:47:04.738Z,952.32
2022-08-30T23:49:31.096Z,952.30
2022-08-30T23:51:57.494Z,952.26
2022-08-30T23:54:23.974Z,952.30
2022-08-30T23:56:50.343Z,952.31
2022-08-30T23:59:16.795Z,952.29
